createdAt,value
2017-10-25T00:02:20.452Z,8.76
2017-10-25T00:04:48.012Z,8.75
2017-10-25T00:07:17.150Z,8.74
2017-10-25T00:09:44.708Z,8.72
2017-10-25T00:12:12.387Z,8.69
2017-10-25T00:14:39.986Z,8.70
2017-10-25T00:17:07.555Z,8.69
2017-10-25T00:19:35.165Z,8.69
2017-10-25T00:22:03.095Z,8.67
2017-10-25T00:24:30.679Z,8.65
2017-10-25T00:26:58.250Z,8.64
2017-10-25T00:29:26.176Z,8.61
2017-10-25T00:31:53.712Z,8.59
2017-10-25T00:34:21.287Z,8.55
2017-10-25T00:36:49.053Z,8.52
2017-10-25T00:39:16.663Z,8.51
2017-10-25T00:41:44.878Z,8.51
2017-10-25T00:44:12.549Z,8.52
2017-10-25T00:46:41.047Z,8.51
2017-10-25T00:49:08.626Z,8.51
2017-10-25T00:51:36.190Z,8.54
2017-10-25T00:54:03.780Z,8.53
2017-10-25T00:56:31.338Z,8.55
2017-10-25T00:58:58.914Z,8.53
2017-10-25T01:01:26.541Z,8.52
2017-10-25T01:03:54.473Z,8.52
2017-10-25T01:06:22.072Z,8.53
2017-10-25T01:08:49.628Z,8.56
2017-10-25T01:11:17.206Z,8.58
2017-10-25T01:13:44.771Z,8.61
2017-10-25T01:16:12.350Z,8.63
2017-10-25T01:18:39.913Z,8.66
2017-10-25T01:21:07.786Z,8.70
2017-10-25T01:23:35.344Z,8.72
2017-10-25T01:26:02.878Z,8.76
2017-10-25T01:28:30.475Z,8.77
2017-10-25T01:30:58.053Z,8.78
2017-10-25T01:33:25.630Z,8.79
2017-10-25T01:35:55.140Z,8.81
2017-10-25T01:38:23.999Z,8.81
2017-10-25T01:40:51.564Z,8.78
2017-10-25T01:43:19.116Z,8.78
2017-10-25T01:45:50.884Z,8.78
2017-10-25T01:48:18.442Z,8.76
2017-10-25T01:50:46.029Z,8.77
2017-10-25T01:53:14.150Z,8.80
2017-10-25T01:55:42.242Z,8.81
2017-10-25T01:58:09.804Z,8.82
2017-10-25T02:00:37.959Z,8.82
2017-10-25T02:03:05.642Z,8.83
2017-10-25T02:05:33.633Z,8.81
2017-10-25T02:08:01.221Z,8.81
2017-10-25T02:10:29.162Z,8.79
2017-10-25T02:12:57.110Z,8.83
2017-10-25T02:15:24.681Z,8.83
2017-10-25T02:17:52.272Z,8.85
2017-10-25T02:20:20.318Z,8.86
2017-10-25T02:22:47.927Z,8.86
2017-10-25T02:25:15.506Z,8.86
2017-10-25T02:27:43.051Z,8.86
2017-10-25T02:30:10.836Z,8.88
2017-10-25T02:32:38.397Z,8.87
2017-10-25T02:35:07.289Z,8.87
2017-10-25T02:37:35.196Z,8.88
2017-10-25T02:40:02.760Z,8.90
2017-10-25T02:42:30.366Z,8.94
2017-10-25T02:44:57.931Z,8.94
2017-10-25T02:47:25.514Z,8.93
2017-10-25T02:49:53.063Z,8.92
2017-10-25T02:52:20.631Z,8.93
2017-10-25T02:54:48.169Z,8.93
2017-10-25T02:57:15.812Z,8.94
2017-10-25T02:59:43.379Z,8.95
2017-10-25T03:02:11.360Z,8.93
2017-10-25T03:04:38.937Z,8.93
2017-10-25T03:07:06.507Z,8.93
2017-10-25T03:09:34.076Z,8.93
2017-10-25T03:12:01.640Z,8.94
2017-10-25T03:14:29.406Z,8.97
2017-10-25T03:16:57.154Z,9.00
2017-10-25T03:19:24.724Z,9.00
2017-10-25T03:21:52.315Z,9.03
2017-10-25T03:24:20.243Z,9.03
2017-10-25T03:26:48.193Z,9.03
2017-10-25T03:29:15.756Z,9.04
2017-10-25T03:31:43.758Z,9.06
2017-10-25T03:34:11.332Z,9.10
2017-10-25T03:36:38.916Z,9.11
2017-10-25T03:39:06.480Z,9.11
2017-10-25T03:41:34.509Z,9.11
2017-10-25T03:44:02.592Z,9.12
2017-10-25T03:46:30.764Z,9.12
2017-10-25T03:48:58.322Z,9.12
2017-10-25T03:51:25.986Z,9.08
2017-10-25T03:53:53.595Z,9.07
2017-10-25T03:56:21.154Z,9.07
2017-10-25T03:58:48.734Z,9.10
2017-10-25T04:01:16.280Z,9.12
2017-10-25T04:03:44.160Z,9.14
2017-10-25T04:06:11.739Z,9.16
2017-10-25T04:08:39.301Z,9.16
2017-10-25T04:11:07.007Z,9.13
2017-10-25T04:13:34.632Z,9.12
2017-10-25T04:16:02.242Z,9.11
2017-10-25T04:18:29.801Z,9.11
2017-10-25T04:20:57.536Z,9.13
2017-10-25T04:23:25.127Z,9.13
2017-10-25T04:25:52.998Z,9.13
2017-10-25T04:28:20.563Z,9.14
2017-10-25T04:30:48.169Z,9.16
2017-10-25T04:33:15.764Z,9.19
2017-10-25T04:35:43.336Z,9.23
2017-10-25T04:38:10.921Z,9.24
2017-10-25T04:40:38.466Z,9.26
2017-10-25T04:43:06.069Z,9.27
2017-10-25T04:45:34.016Z,9.27
2017-10-25T04:48:02.378Z,9.26
2017-10-25T04:50:30.096Z,9.24
2017-10-25T04:52:57.663Z,9.25
2017-10-25T04:55:26.657Z,9.29
2017-10-25T04:57:54.221Z,9.30
2017-10-25T05:00:21.801Z,9.31
2017-10-25T05:02:49.433Z,9.30
2017-10-25T05:05:17.116Z,9.32
2017-10-25T05:07:44.680Z,9.33
2017-10-25T05:10:12.253Z,9.34
2017-10-25T05:12:39.855Z,9.32
2017-10-25T05:15:07.418Z,9.32
2017-10-25T05:17:34.989Z,9.32
2017-10-25T05:20:02.563Z,9.35
2017-10-25T05:22:30.159Z,9.38
2017-10-25T05:24:57.709Z,9.39
2017-10-25T05:27:25.295Z,9.39
2017-10-25T05:29:52.860Z,9.40
2017-10-25T05:32:20.460Z,9.41
2017-10-25T05:34:48.024Z,9.39
2017-10-25T05:37:15.581Z,9.42
2017-10-25T05:39:43.127Z,9.42
2017-10-25T05:42:11.056Z,9.43
2017-10-25T05:44:38.657Z,9.44
2017-10-25T05:47:06.371Z,9.46
2017-10-25T05:49:33.955Z,9.46
2017-10-25T05:52:01.560Z,9.46
2017-10-25T05:54:29.126Z,9.46
2017-10-25T05:56:56.714Z,9.46
2017-10-25T05:59:24.277Z,9.45
2017-10-25T06:01:51.868Z,9.43
2017-10-25T06:04:19.803Z,9.43
2017-10-25T06:06:47.399Z,9.41
2017-10-25T06:09:16.307Z,9.41
2017-10-25T06:11:43.905Z,9.45
2017-10-25T06:14:11.468Z,9.47
2017-10-25T06:16:39.059Z,9.47
2017-10-25T06:19:06.633Z,9.49
2017-10-25T06:21:34.186Z,9.50
2017-10-25T06:24:02.134Z,9.52
2017-10-25T06:26:29.815Z,9.53
2017-10-25T06:28:57.392Z,9.54
2017-10-25T06:31:24.970Z,9.56
2017-10-25T06:33:52.530Z,9.58
2017-10-25T06:36:20.090Z,9.60
2017-10-25T06:38:48.011Z,9.62
2017-10-25T06:41:15.578Z,9.63
2017-10-25T06:43:43.298Z,9.63
2017-10-25T06:46:10.882Z,9.64
2017-10-25T06:48:38.431Z,9.65
2017-10-25T06:51:06.022Z,9.68
2017-10-25T06:53:33.591Z,9.69
2017-10-25T06:56:01.164Z,9.70
2017-10-25T06:58:28.750Z,9.73
2017-10-25T07:00:56.654Z,9.75
2017-10-25T07:03:24.222Z,9.75
2017-10-25T07:05:51.833Z,9.80
2017-10-25T07:08:19.420Z,9.86
2017-10-25T07:10:46.964Z,9.92
2017-10-25T07:13:15.172Z,9.99
2017-10-25T07:15:42.742Z,10.08
2017-10-25T07:18:10.340Z,10.15
2017-10-25T07:20:37.915Z,10.25
2017-10-25T07:23:05.926Z,10.35
2017-10-25T07:25:34.847Z,10.41
2017-10-25T07:28:02.424Z,10.47
2017-10-25T07:30:30.022Z,10.52
2017-10-25T07:32:57.587Z,10.57
2017-10-25T07:35:25.196Z,10.61
2017-10-25T07:37:53.108Z,10.67
2017-10-25T07:40:20.994Z,10.71
2017-10-25T07:42:48.906Z,10.73
2017-10-25T07:45:16.471Z,10.74
2017-10-25T07:47:44.203Z,10.76
2017-10-25T07:50:12.123Z,10.81
2017-10-25T07:52:39.698Z,10.88
2017-10-25T07:55:07.291Z,10.94
2017-10-25T07:57:34.886Z,11.02
2017-10-25T08:00:02.482Z,11.05
2017-10-25T08:02:30.040Z,11.09
2017-10-25T08:04:57.626Z,11.14
2017-10-25T08:07:25.206Z,11.18
2017-10-25T08:09:53.487Z,11.25
2017-10-25T08:12:21.028Z,11.32
2017-10-25T08:14:48.739Z,11.38
2017-10-25T08:17:16.393Z,11.42
2017-10-25T08:19:44.338Z,11.48
2017-10-25T08:22:11.944Z,11.59
2017-10-25T08:24:39.498Z,11.66
2017-10-25T08:27:07.198Z,11.75
2017-10-25T08:29:34.822Z,11.82
2017-10-25T08:32:02.426Z,11.86
2017-10-25T08:34:30.095Z,11.88
2017-10-25T08:36:57.657Z,11.90
2017-10-25T08:39:25.587Z,11.93
2017-10-25T08:41:53.200Z,11.96
2017-10-25T08:44:21.124Z,12.04
2017-10-25T08:46:48.687Z,12.09
2017-10-25T08:49:16.299Z,12.12
2017-10-25T08:51:43.958Z,12.15
2017-10-25T08:54:11.567Z,12.25
2017-10-25T08:56:39.138Z,12.36
2017-10-25T08:59:06.776Z,12.44
2017-10-25T09:01:34.359Z,12.51
2017-10-25T09:04:01.959Z,12.62
2017-10-25T09:06:29.531Z,12.75
2017-10-25T09:08:57.176Z,12.89
2017-10-25T09:11:24.940Z,13.06
2017-10-25T09:13:52.518Z,13.27
2017-10-25T09:16:20.130Z,13.47
2017-10-25T09:18:47.688Z,13.61
2017-10-25T09:21:15.308Z,13.69
2017-10-25T09:23:42.860Z,13.78
2017-10-25T09:26:10.785Z,13.84
2017-10-25T09:28:38.362Z,13.96
2017-10-25T09:31:06.134Z,14.03
2017-10-25T09:33:33.812Z,14.08
2017-10-25T09:36:01.382Z,14.17
2017-10-25T09:38:28.979Z,14.26
2017-10-25T09:40:57.121Z,14.36
2017-10-25T09:43:24.717Z,14.46
2017-10-25T09:45:52.286Z,14.52
2017-10-25T09:48:20.037Z,14.58
2017-10-25T09:50:47.618Z,14.63
2017-10-25T09:53:15.596Z,14.67
2017-10-25T09:55:43.186Z,14.72
2017-10-25T09:58:10.753Z,14.74
2017-10-25T10:00:38.357Z,14.75
2017-10-25T10:03:05.918Z,14.73
2017-10-25T10:05:33.507Z,14.71
2017-10-25T10:08:01.081Z,14.74
2017-10-25T10:10:28.676Z,14.81
2017-10-25T10:12:56.274Z,14.82
2017-10-25T10:15:23.843Z,14.90
2017-10-25T10:17:51.544Z,15.01
2017-10-25T10:20:19.104Z,15.10
2017-10-25T10:22:46.704Z,15.16
2017-10-25T10:25:14.280Z,15.21
2017-10-25T10:27:42.273Z,15.24
2017-10-25T10:30:09.839Z,15.26
2017-10-25T10:32:37.396Z,15.27
2017-10-25T10:35:04.990Z,15.26
2017-10-25T10:37:32.604Z,15.23
2017-10-25T10:40:00.204Z,15.20
2017-10-25T10:42:27.782Z,15.25
2017-10-25T10:44:55.394Z,15.26
2017-10-25T10:47:22.949Z,15.31
2017-10-25T10:49:50.558Z,15.41
2017-10-25T10:52:18.126Z,15.58
2017-10-25T10:54:45.704Z,15.65
2017-10-25T10:57:13.357Z,15.70
2017-10-25T10:59:40.933Z,15.76
2017-10-25T11:02:08.496Z,15.81
2017-10-25T11:04:36.116Z,15.83
2017-10-25T11:07:03.783Z,15.89
2017-10-25T11:09:31.370Z,16.04
2017-10-25T11:11:59.352Z,16.18
2017-10-25T11:14:26.950Z,16.33
2017-10-25T11:16:54.542Z,16.41
2017-10-25T11:19:22.165Z,16.43
2017-10-25T11:21:49.750Z,16.43
2017-10-25T11:24:17.399Z,16.45
2017-10-25T11:26:44.984Z,16.41
2017-10-25T11:29:12.612Z,16.42
2017-10-25T11:31:40.182Z,16.45
2017-10-25T11:34:07.749Z,16.47
2017-10-25T11:36:35.431Z,16.43
2017-10-25T11:39:03.003Z,16.36
2017-10-25T11:41:30.686Z,16.36
2017-10-25T11:43:58.256Z,16.37
2017-10-25T11:46:25.853Z,16.40
2017-10-25T11:48:53.387Z,16.43
2017-10-25T11:51:20.992Z,16.46
2017-10-25T11:53:48.544Z,16.49
2017-10-25T11:56:16.557Z,16.49
2017-10-25T11:58:44.136Z,16.49
2017-10-25T12:01:11.685Z,16.50
2017-10-25T12:03:39.355Z,16.51
2017-10-25T12:06:06.923Z,16.48
2017-10-25T12:08:34.534Z,16.45
2017-10-25T12:11:02.142Z,16.44
2017-10-25T12:13:29.728Z,16.46
2017-10-25T12:15:57.315Z,16.48
2017-10-25T12:18:25.224Z,16.49
2017-10-25T12:20:52.863Z,16.49
2017-10-25T12:23:20.431Z,16.47
2017-10-25T12:25:48.022Z,16.49
2017-10-25T12:28:15.575Z,16.50
2017-10-25T12:30:43.207Z,16.48
2017-10-25T12:33:10.792Z,16.49
2017-10-25T12:35:38.388Z,16.50
2017-10-25T12:38:05.968Z,16.46
2017-10-25T12:40:33.572Z,16.47
2017-10-25T12:43:01.147Z,16.53
2017-10-25T12:45:28.854Z,16.62
2017-10-25T12:47:56.449Z,16.71
2017-10-25T12:50:24.014Z,16.78
2017-10-25T12:52:51.601Z,16.81
2017-10-25T12:55:19.208Z,16.81
2017-10-25T12:57:46.814Z,16.78
2017-10-25T13:00:14.363Z,16.73
2017-10-25T13:02:42.927Z,16.71
2017-10-25T13:05:10.509Z,16.72
2017-10-25T13:07:38.289Z,16.78
2017-10-25T13:10:35.484Z,16.84
2017-10-25T13:13:24.321Z,16.90
2017-10-25T13:19:14.521Z,16.87
2017-10-25T13:21:42.097Z,16.84
2017-10-25T13:24:09.669Z,16.85
2017-10-25T13:26:37.285Z,16.88
2017-10-25T13:29:04.937Z,16.89
2017-10-25T13:31:32.711Z,16.90
2017-10-25T13:34:00.383Z,16.94
2017-10-25T13:36:28.049Z,16.95
2017-10-25T13:38:55.748Z,16.97
2017-10-25T13:41:23.367Z,17.04
2017-10-25T13:43:50.981Z,17.08
2017-10-25T13:46:18.571Z,17.18
2017-10-25T13:48:46.186Z,17.24
2017-10-25T13:51:13.771Z,17.30
2017-10-25T13:53:41.460Z,17.32
2017-10-25T13:56:09.572Z,17.33
2017-10-25T13:58:37.197Z,17.31
2017-10-25T14:01:04.816Z,17.25
2017-10-25T14:03:32.387Z,17.29
2017-10-25T14:06:01.021Z,17.35
2017-10-25T14:08:28.579Z,17.44
2017-10-25T14:10:56.547Z,17.49
2017-10-25T14:13:24.113Z,17.51
2017-10-25T14:15:51.702Z,17.53
2017-10-25T14:18:19.279Z,17.54
2017-10-25T14:20:47.286Z,17.48
2017-10-25T14:23:14.851Z,17.46
2017-10-25T14:25:42.442Z,17.47
2017-10-25T14:28:21.785Z,17.49
2017-10-25T14:30:49.371Z,17.52
2017-10-25T14:33:17.017Z,17.55
2017-10-25T14:35:44.563Z,17.49
2017-10-25T14:38:12.163Z,17.40
2017-10-25T14:40:39.749Z,17.36
2017-10-25T14:43:07.728Z,17.47
2017-10-25T14:45:35.302Z,17.64
2017-10-25T14:48:02.883Z,17.75
2017-10-25T14:50:30.476Z,17.91
2017-10-25T14:52:58.048Z,18.07
2017-10-25T14:55:25.664Z,18.27
2017-10-25T14:57:53.429Z,18.51
2017-10-25T15:00:21.035Z,18.64
2017-10-25T15:02:48.612Z,18.71
2017-10-25T15:05:17.550Z,18.77
2017-10-25T15:07:45.608Z,18.79
2017-10-25T15:10:13.156Z,18.74
2017-10-25T15:12:40.774Z,18.67
2017-10-25T15:15:08.338Z,18.55
2017-10-25T15:17:35.966Z,18.39
2017-10-25T15:20:03.544Z,18.29
2017-10-25T15:22:31.257Z,18.25
2017-10-25T15:24:58.826Z,18.18
2017-10-25T15:27:27.735Z,18.07
2017-10-25T15:29:55.334Z,17.97
2017-10-25T15:32:23.337Z,17.87
2017-10-25T15:34:50.921Z,17.77
2017-10-25T15:37:19.906Z,17.64
2017-10-25T15:39:48.058Z,17.53
2017-10-25T15:42:16.111Z,17.40
2017-10-25T15:44:43.706Z,17.30
2017-10-25T15:47:11.288Z,17.19
2017-10-25T15:49:39.188Z,17.09
2017-10-25T15:52:08.147Z,17.00
2017-10-25T15:54:37.008Z,16.90
2017-10-25T15:57:04.732Z,16.81
2017-10-25T15:59:32.756Z,16.72
2017-10-25T16:02:00.680Z,16.62
2017-10-25T16:04:28.262Z,16.52
2017-10-25T16:06:55.883Z,16.40
2017-10-25T16:09:23.451Z,16.26
2017-10-25T16:11:51.063Z,16.11
2017-10-25T16:14:18.639Z,16.00
2017-10-25T16:16:46.258Z,15.91
2017-10-25T16:19:14.450Z,15.81
2017-10-25T16:21:42.115Z,15.71
2017-10-25T16:24:09.706Z,15.63
2017-10-25T16:26:37.292Z,15.54
2017-10-25T16:29:05.288Z,15.46
2017-10-25T16:31:34.225Z,15.39
2017-10-25T16:34:02.297Z,15.29
2017-10-25T16:36:30.056Z,15.21
2017-10-25T16:38:57.804Z,15.09
2017-10-25T16:41:25.422Z,14.99
2017-10-25T16:43:53.009Z,14.87
2017-10-25T16:46:20.981Z,14.79
2017-10-25T16:48:48.573Z,14.70
2017-10-25T16:51:16.156Z,14.66
2017-10-25T16:53:44.116Z,14.58
2017-10-25T16:56:11.691Z,14.52
2017-10-25T16:58:39.333Z,14.44
2017-10-25T17:01:06.922Z,14.39
2017-10-25T17:03:34.517Z,14.31
2017-10-25T17:06:02.322Z,14.24
2017-10-25T17:08:29.931Z,14.14
2017-10-25T17:10:57.529Z,14.07
2017-10-25T17:13:26.369Z,13.99
2017-10-25T17:15:58.222Z,13.91
2017-10-25T17:18:26.026Z,13.83
2017-10-25T17:20:53.654Z,13.75
2017-10-25T17:23:21.723Z,13.70
2017-10-25T17:25:49.329Z,13.64
2017-10-25T17:28:17.061Z,13.57
2017-10-25T17:43:44.823Z,13.29
2017-10-25T17:46:12.400Z,13.26
2017-10-25T17:48:42.010Z,13.23
2017-10-25T17:51:09.646Z,13.19
2017-10-25T17:53:37.241Z,13.13
2017-10-25T17:56:10.856Z,13.07
2017-10-25T17:58:38.449Z,13.00
2017-10-25T18:01:06.250Z,12.91
2017-10-25T18:03:34.287Z,12.85
2017-10-25T18:06:01.931Z,12.79
2017-10-25T18:08:29.619Z,12.71
2017-10-25T18:10:57.317Z,12.64
2017-10-25T18:13:25.017Z,12.57
2017-10-25T18:15:52.708Z,12.50
2017-10-25T18:18:21.100Z,12.44
2017-10-25T18:20:48.867Z,12.40
2017-10-25T18:23:17.096Z,12.36
2017-10-25T18:25:44.934Z,12.32
2017-10-25T18:28:12.993Z,12.30
2017-10-25T18:30:40.704Z,12.29
2017-10-25T18:33:09.523Z,12.26
2017-10-25T18:35:38.892Z,12.25
2017-10-25T18:38:06.526Z,12.22
2017-10-25T18:40:35.242Z,12.17
2017-10-25T18:43:03.161Z,12.14
2017-10-25T18:45:32.517Z,12.09
2017-10-25T18:48:01.294Z,12.06
2017-10-25T18:50:29.149Z,12.02
2017-10-25T18:52:56.974Z,11.96
2017-10-25T18:55:27.320Z,11.90
2017-10-25T18:57:55.114Z,11.87
2017-10-25T19:00:23.031Z,11.82
2017-10-25T19:02:50.803Z,11.77
2017-10-25T19:05:18.690Z,11.74
2017-10-25T19:07:51.296Z,11.72
2017-10-25T19:10:20.842Z,11.70
2017-10-25T19:12:48.772Z,11.68
2017-10-25T19:15:16.859Z,11.66
2017-10-25T19:17:44.789Z,11.64
2017-10-25T19:20:12.621Z,11.59
2017-10-25T19:22:40.429Z,11.56
2017-10-25T19:25:08.716Z,11.52
2017-10-25T19:27:36.992Z,11.48
2017-10-25T19:30:05.202Z,11.44
2017-10-25T19:32:33.426Z,11.40
2017-10-25T19:35:01.423Z,11.39
2017-10-25T19:37:30.067Z,11.36
2017-10-25T19:40:00.093Z,11.34
2017-10-25T19:42:27.943Z,11.32
2017-10-25T19:44:57.385Z,11.30
2017-10-25T19:47:29.944Z,11.27
2017-10-25T19:49:57.918Z,11.25
2017-10-25T19:52:25.698Z,11.22
2017-10-25T19:54:53.462Z,11.17
2017-10-25T19:57:22.142Z,11.10
2017-10-25T19:59:49.987Z,11.05
2017-10-25T20:02:18.061Z,11.00
2017-10-25T20:04:45.927Z,10.97
2017-10-25T20:07:13.899Z,10.96
2017-10-25T20:09:41.665Z,10.96
2017-10-25T20:12:09.330Z,10.97
2017-10-25T20:14:37.064Z,10.96
2017-10-25T20:17:04.831Z,10.95
2017-10-25T20:19:32.541Z,10.95
2017-10-25T20:22:00.825Z,10.95
2017-10-25T20:24:28.564Z,10.94
2017-10-25T20:26:56.212Z,10.91
2017-10-25T20:29:23.829Z,10.75
2017-10-25T20:31:51.450Z,10.68
2017-10-25T20:34:19.068Z,10.63
2017-10-25T20:36:46.981Z,10.56
2017-10-25T20:39:14.601Z,10.49
2017-10-25T20:41:42.617Z,10.46
2017-10-25T20:44:10.388Z,10.46
2017-10-25T20:46:39.387Z,10.48
2017-10-25T20:49:07.038Z,10.48
2017-10-25T20:51:34.604Z,10.45
2017-10-25T20:54:02.220Z,10.45
2017-10-25T20:56:29.801Z,10.46
2017-10-25T20:58:57.500Z,10.45
2017-10-25T21:01:25.114Z,10.43
2017-10-25T21:03:52.718Z,10.38
2017-10-25T21:06:20.337Z,10.36
2017-10-25T21:08:47.905Z,10.34
2017-10-25T21:11:15.619Z,10.33
2017-10-25T21:13:43.232Z,10.32
2017-10-25T21:16:10.856Z,10.32
2017-10-25T21:18:39.058Z,10.34
2017-10-25T21:21:06.656Z,10.33
2017-10-25T21:23:34.232Z,10.30
2017-10-25T21:26:01.803Z,10.27
2017-10-25T21:28:29.425Z,10.26
2017-10-25T21:30:56.996Z,10.23
2017-10-25T21:33:25.119Z,10.21
2017-10-25T21:35:53.159Z,10.18
2017-10-25T21:38:20.728Z,10.18
2017-10-25T21:40:48.393Z,10.16
2017-10-25T21:43:15.985Z,10.14
2017-10-25T21:45:43.575Z,10.10
2017-10-25T21:48:11.170Z,10.08
2017-10-25T21:50:38.752Z,10.09
2017-10-25T21:53:06.340Z,10.07
2017-10-25T21:55:33.954Z,10.06
2017-10-25T21:58:01.535Z,10.04
2017-10-25T22:00:29.111Z,10.04
2017-10-25T22:02:56.711Z,10.03
2017-10-25T22:05:24.306Z,10.03
2017-10-25T22:07:51.889Z,10.03
2017-10-25T22:10:19.546Z,10.02
2017-10-25T22:12:47.129Z,10.01
2017-10-25T22:15:14.713Z,10.01
2017-10-25T22:17:42.687Z,10.00
2017-10-25T22:20:10.272Z,9.99
2017-10-25T22:22:37.802Z,9.99
2017-10-25T22:25:05.380Z,9.94
2017-10-25T22:27:33.055Z,9.90
2017-10-25T22:30:00.621Z,9.84
2017-10-25T22:32:29.833Z,9.82
2017-10-25T22:34:57.510Z,9.81
2017-10-25T22:37:25.095Z,9.82
2017-10-25T22:39:53.155Z,9.80
2017-10-25T22:42:20.905Z,9.78
2017-10-25T22:44:48.513Z,9.77
2017-10-25T22:47:16.124Z,9.77
2017-10-25T22:49:43.677Z,9.77
2017-10-25T22:52:11.268Z,9.77
2017-10-25T22:54:38.905Z,9.77
2017-10-25T22:57:06.473Z,9.78
2017-10-25T22:59:34.046Z,9.79
2017-10-25T23:02:02.014Z,9.79
2017-10-25T23:04:29.577Z,9.76
2017-10-25T23:06:57.170Z,9.75
2017-10-25T23:09:24.773Z,9.79
2017-10-25T23:11:52.326Z,9.80
2017-10-25T23:14:19.915Z,9.82
2017-10-25T23:16:47.481Z,9.84
2017-10-25T23:19:15.044Z,9.84
2017-10-25T23:21:42.601Z,9.82
2017-10-25T23:24:10.204Z,9.81
2017-10-25T23:26:37.764Z,9.80
2017-10-25T23:29:05.325Z,9.79
2017-10-25T23:31:32.919Z,9.73
2017-10-25T23:34:00.804Z,9.73
2017-10-25T23:36:28.677Z,9.72
2017-10-25T23:38:56.234Z,9.73
2017-10-25T23:41:23.810Z,9.71
2017-10-25T23:43:51.359Z,9.70
2017-10-25T23:46:19.320Z,9.68
2017-10-25T23:48:46.878Z,9.70
2017-10-25T23:51:14.465Z,9.70
2017-10-25T23:53:42.087Z,9.72
2017-10-25T23:56:09.664Z,9.74
2017-10-25T23:58:37.353Z,9.74
